Time;durP1;ratioP1;P1;durP2;ratioP2;P2;SDS_P1;SDS_P2;PMS_P1;PMS_P2;Temp;Humidity;BMP_temperature;BMP_pressure;BME280_temperature;BME280_humidity;BME280_pressure;Samples;Min_cycle;Max_cycle;Signal;HPM_P1;HPM_P2
2023/09/18 00:02:01;;;;;;;3.53;3.23;;;;;;;24.39;72.00;97087.91;5041997;28;20201;-30
2023/09/18 00:04:28;;;;;;;3.30;3.00;;;;;;;24.39;71.95;97080.22;5046695;28;20259;-26
2023/09/18 00:06:54;;;;;;;3.30;3.00;;;;;;;24.39;71.59;97080.22;5043631;28;20225;-26
2023/09/18 00:09:21;;;;;;;3.30;3.00;;;;;;;24.38;71.49;97076.78;5052544;28;20228;-26
2023/09/18 00:11:48;;;;;;;3.03;2.80;;;;;;;24.39;71.91;97070.78;5045690;28;20228;-27
2023/09/18 00:14:14;;;;;;;3.27;2.97;;;;;;;24.40;71.89;97071.66;5042171;28;20204;-26
2023/09/18 00:16:41;;;;;;;3.03;2.80;;;;;;;24.37;71.81;97071.63;5047434;28;20202;-26
2023/09/18 00:19:24;;;;;;;3.33;3.03;;;;;;;24.35;72.13;97060.44;5053711;28;20229;-26
2023/09/18 00:21:52;;;;;;;3.43;3.13;;;;;;;24.34;71.88;97061.31;5054234;28;20201;-26
2023/09/18 00:24:19;;;;;;;3.40;3.10;;;;;;;24.32;71.84;97063.00;5044514;28;20602;-26
2023/09/18 00:26:47;;;;;;;3.20;2.90;;;;;;;24.31;71.91;97064.69;5043371;28;20292;-26
2023/09/18 00:29:14;;;;;;;3.20;2.83;;;;;;;24.31;71.92;97056.97;5052055;28;20929;-30
2023/09/18 00:31:41;;;;;;;3.47;3.17;;;;;;;24.28;72.44;97051.81;5042271;28;20205;-26
2023/09/18 00:34:07;;;;;;;3.03;2.83;;;;;;;24.28;72.15;97053.53;5051688;28;20231;-26
2023/09/18 00:36:34;;;;;;;2.97;2.77;;;;;;;24.27;72.37;97044.09;5051091;28;20279;-26
2023/09/18 00:39:01;;;;;;;3.57;3.27;;;;;;;24.26;72.31;97047.50;5043768;28;20224;-29
2023/09/18 00:41:28;;;;;;;2.90;2.70;;;;;;;24.25;72.47;97044.06;5049030;28;20202;-26
2023/09/18 00:43:54;;;;;;;3.43;3.10;;;;;;;24.24;72.16;97041.47;5046522;28;20295;-37
2023/09/18 00:46:22;;;;;;;3.40;3.10;;;;;;;24.24;72.28;97041.47;5045059;28;20538;-26
2023/09/18 00:48:49;;;;;;;3.43;3.20;;;;;;;24.18;72.27;97028.56;5043602;28;20311;-25
2023/09/18 00:51:16;;;;;;;3.20;2.90;;;;;;;24.18;72.42;97018.31;5028581;28;20208;-26
2023/09/18 00:53:43;;;;;;;2.83;2.63;;;;;;;24.23;72.78;97032.94;5051822;28;20197;-29
2023/09/18 00:56:10;;;;;;;3.50;2.90;;;;;;;24.23;72.46;97026.94;5035680;28;20261;-26
2023/09/18 00:58:36;;;;;;;3.30;3.00;;;;;;;24.16;72.37;97013.16;5029185;28;20224;-26
2023/09/18 01:01:04;;;;;;;3.30;3.00;;;;;;;24.24;72.28;97014.09;5027528;28;20664;-26
2023/09/18 01:03:30;;;;;;;3.40;3.10;;;;;;;24.24;72.62;97011.53;5038783;28;20292;-26
2023/09/18 01:05:57;;;;;;;3.23;2.93;;;;;;;24.25;72.38;97013.25;5049656;28;20203;-26
2023/09/18 01:08:24;;;;;;;3.20;2.93;;;;;;;24.26;72.51;97007.28;5050587;28;20216;-26
2023/09/18 01:11:03;;;;;;;3.10;2.80;;;;;;;24.27;72.32;97008.13;5059701;23;20225;-27
2023/09/18 01:14:03;;;;;;;3.33;3.03;;;;;;;24.26;72.15;97006.44;5040384;28;20296;-27
2023/09/18 01:16:34;;;;;;;3.37;3.07;;;;;;;24.25;72.13;96994.44;5046694;28;20252;-28
2023/09/18 01:19:03;;;;;;;3.63;2.77;;;;;;;24.30;72.41;97001.34;5046272;28;20248;-29
2023/09/18 01:21:29;;;;;;;3.27;2.97;;;;;;;24.23;72.22;96985.84;5045911;28;20198;-35
2023/09/18 01:23:56;;;;;;;3.10;2.80;;;;;;;24.30;72.04;97003.91;5049602;28;20362;-27
2023/09/18 01:26:22;;;;;;;2.97;2.77;;;;;;;24.31;72.00;97013.31;5053374;28;20288;-29
2023/09/18 01:28:49;;;;;;;3.10;2.80;;;;;;;24.32;71.88;97009.06;5046619;28;20217;-27
2023/09/18 01:31:17;;;;;;;3.87;3.17;;;;;;;24.31;71.83;97004.78;5047258;28;20217;-28
2023/09/18 01:33:44;;;;;;;2.87;2.67;;;;;;;24.32;71.91;97001.34;5049785;28;20197;-27
2023/09/18 01:36:11;;;;;;;3.10;2.80;;;;;;;24.30;71.99;96996.19;5052072;28;20697;-28
2023/09/18 01:38:37;;;;;;;3.10;2.80;;;;;;;24.34;72.01;97010.78;5014405;28;20660;-29
2023/09/18 01:41:04;;;;;;;2.90;2.70;;;;;;;24.35;72.21;97014.22;5035817;28;20244;-27
2023/09/18 01:43:30;;;;;;;3.10;2.80;;;;;;;24.36;72.12;97013.38;5044812;28;20208;-27
2023/09/18 01:45:57;;;;;;;3.60;3.30;;;;;;;24.36;72.04;97008.22;5044045;28;20714;-27
2023/09/18 01:48:23;;;;;;;2.80;2.60;;;;;;;24.35;72.18;97004.81;5044749;28;20225;-29
2023/09/18 01:50:50;;;;;;;2.80;2.60;;;;;;;24.36;71.71;97003.09;5044571;28;20255;-27
2023/09/18 01:53:17;;;;;;;2.80;2.60;;;;;;;24.36;71.76;96993.69;5044971;28;20197;-27
2023/09/18 01:55:44;;;;;;;2.80;2.60;;;;;;;24.36;71.82;96993.69;5040854;28;20224;-28
2023/09/18 01:58:14;;;;;;;3.00;2.77;;;;;;;24.36;71.87;96985.13;5042268;28;20193;-27
2023/09/18 02:00:41;;;;;;;3.00;2.80;;;;;;;24.36;71.82;96982.53;5037750;28;20279;-29
2023/09/18 02:03:08;;;;;;;3.10;2.90;;;;;;;24.37;71.93;96984.28;5044250;28;20201;-28
2023/09/18 02:05:54;;;;;;;3.00;2.70;;;;;;;24.36;71.79;96980.84;5043443;28;20288;-27
2023/09/18 02:08:21;;;;;;;2.80;2.60;;;;;;;24.37;71.88;96982.56;5051620;28;20225;-27
2023/09/18 02:10:48;;;;;;;2.73;2.53;;;;;;;24.35;71.68;96981.69;5052892;28;20364;-29
2023/09/18 02:13:14;;;;;;;3.40;2.70;;;;;;;24.37;71.90;96976.59;5053156;28;20204;-27
2023/09/18 02:15:41;;;;;;;3.00;2.80;;;;;;;24.37;71.50;96974.84;5051028;28;20727;-27
2023/09/18 02:18:08;;;;;;;2.80;2.60;;;;;;;24.36;72.09;96965.44;5044595;28;20232;-27
2023/09/18 02:20:41;;;;;;;3.20;2.90;;;;;;;24.33;71.58;96957.69;5049526;28;20653;-27
2023/09/18 02:23:08;;;;;;;2.97;2.77;;;;;;;24.32;72.03;96952.56;5048620;28;20233;-27
2023/09/18 02:25:34;;;;;;;3.03;2.83;;;;;;;24.30;71.64;96947.41;5045308;28;20201;-30
2023/09/18 02:28:01;;;;;;;2.70;2.50;;;;;;;24.31;71.85;96961.13;5047972;28;20220;-31
2023/09/18 02:30:28;;;;;;;3.30;2.97;;;;;;;24.29;72.05;96960.22;5052466;28;20667;-27
2023/09/18 02:32:55;;;;;;;3.40;2.87;;;;;;;24.26;71.82;96963.63;5047178;28;20652;-27
2023/09/18 02:35:22;;;;;;;2.90;2.67;;;;;;;24.26;72.38;96966.22;5042649;28;20297;-27
2023/09/18 02:37:48;;;;;;;2.90;2.70;;;;;;;24.25;72.40;96981.59;5052339;28;20288;-27
2023/09/18 02:40:15;;;;;;;2.70;2.50;;;;;;;24.24;72.28;96978.16;5051549;28;20274;-27
2023/09/18 02:42:42;;;;;;;2.87;2.60;;;;;;;24.23;72.26;96978.16;5051674;28;20255;-29
2023/09/18 02:45:09;;;;;;;2.80;2.60;;;;;;;24.22;72.48;96977.28;5039433;28;20197;-27
2023/09/18 02:47:37;;;;;;;2.80;2.60;;;;;;;24.20;72.21;96979.00;5045934;28;20225;-31
2023/09/18 02:50:05;;;;;;;2.73;2.53;;;;;;;24.21;72.58;96974.69;5051883;28;20662;-28
2023/09/18 02:52:32;;;;;;;3.10;2.90;;;;;;;24.21;72.33;96962.72;5039950;28;20232;-27
2023/09/18 02:54:58;;;;;;;2.83;2.63;;;;;;;24.20;72.58;96957.56;5051348;28;20201;-30
2023/09/18 02:57:25;;;;;;;3.27;3.00;;;;;;;24.18;72.71;96954.13;5048668;28;20204;-27
2023/09/18 02:59:52;;;;;;;3.07;2.87;;;;;;;24.22;72.50;96950.75;5049597;28;20660;-27
2023/09/18 03:02:18;;;;;;;3.10;2.80;;;;;;;24.22;72.26;96950.75;5051264;28;20240;-27
2023/09/18 03:04:45;;;;;;;2.50;2.30;;;;;;;24.23;72.76;96962.75;5047647;28;20208;-29
2023/09/18 03:07:16;;;;;;;3.07;2.77;;;;;;;24.24;72.56;96961.88;5052034;28;20205;-27
2023/09/18 03:09:43;;;;;;;2.70;2.50;;;;;;;24.25;72.30;96961.91;5046351;28;20231;-27
2023/09/18 03:12:09;;;;;;;3.20;2.90;;;;;;;24.23;71.99;96939.63;5047371;28;20203;-27
2023/09/18 03:14:36;;;;;;;2.90;2.70;;;;;;;24.26;72.45;96935.41;5047604;28;20295;-29
2023/09/18 03:17:02;;;;;;;2.93;2.73;;;;;;;24.27;72.05;96936.22;5050317;28;20204;-27
2023/09/18 03:19:29;;;;;;;3.00;2.80;;;;;;;24.27;72.44;96931.97;5043705;28;20269;-34
2023/09/18 03:21:55;;;;;;;3.00;2.80;;;;;;;24.27;72.57;96926.84;5051412;28;20663;-27
2023/09/18 03:24:22;;;;;;;3.00;2.73;;;;;;;24.29;71.99;96916.56;5046297;28;20197;-28
2023/09/18 03:26:49;;;;;;;2.77;2.57;;;;;;;24.29;71.79;96920.00;5049562;28;20201;-27
2023/09/18 03:29:15;;;;;;;2.40;2.30;;;;;;;24.31;71.97;96920.03;5045714;28;20616;-29
2023/09/18 03:31:42;;;;;;;2.73;2.53;;;;;;;24.22;71.83;96900.25;5051670;28;20631;-30
2023/09/18 03:34:09;;;;;;;2.90;2.70;;;;;;;24.27;72.13;96896.00;5056279;28;20641;-27
2023/09/18 03:36:37;;;;;;;2.70;2.50;;;;;;;24.32;71.90;96909.78;5053777;28;20717;-27
2023/09/18 03:39:04;;;;;;;2.33;2.23;;;;;;;24.32;71.81;96894.34;5047650;28;20224;-27
2023/09/18 03:41:33;;;;;;;3.10;2.90;;;;;;;24.32;72.11;96899.50;5055753;28;20564;-27
2023/09/18 03:44:00;;;;;;;3.13;2.90;;;;;;;24.33;71.72;96892.63;5047647;28;20204;-27
2023/09/18 03:46:27;;;;;;;2.93;2.70;;;;;;;24.33;71.80;96879.78;5056819;28;20203;-28
2023/09/18 03:48:54;;;;;;;2.70;2.50;;;;;;;24.33;71.85;96883.22;5049166;28;20323;-28
2023/09/18 03:51:21;;;;;;;2.83;2.63;;;;;;;24.32;71.96;96881.53;5058055;28;20232;-27
2023/09/18 03:53:48;;;;;;;2.90;2.70;;;;;;;24.33;71.71;96885.78;5050136;28;20294;-27
2023/09/18 03:56:15;;;;;;;2.70;2.50;;;;;;;24.35;71.46;96893.50;5056809;28;20695;-27
2023/09/18 03:58:42;;;;;;;2.67;2.47;;;;;;;24.37;71.69;96887.53;5041906;28;20206;-29
2023/09/18 04:01:08;;;;;;;3.00;2.73;;;;;;;24.37;71.86;96889.25;5055944;28;20203;-27
2023/09/18 04:03:35;;;;;;;2.80;2.60;;;;;;;24.38;71.68;96883.25;5056473;28;20204;-28
2023/09/18 04:06:03;;;;;;;2.73;2.53;;;;;;;24.39;71.70;96877.31;5056775;28;20224;-27
2023/09/18 04:08:29;;;;;;;2.70;2.50;;;;;;;24.38;71.84;96876.44;5049876;28;20308;-29
2023/09/18 04:10:57;;;;;;;2.67;2.47;;;;;;;24.38;71.79;96867.84;5057570;28;20246;-27
2023/09/18 04:13:24;;;;;;;2.80;2.60;;;;;;;24.38;71.35;96871.28;5040348;28;20228;-29
2023/09/18 04:15:56;;;;;;;2.77;2.57;;;;;;;24.38;71.64;96873.00;5057580;28;20236;-29
2023/09/18 04:18:23;;;;;;;2.70;2.50;;;;;;;24.37;71.37;96855.88;5056990;28;20247;-29
2023/09/18 04:20:51;;;;;;;3.03;2.83;;;;;;;24.34;71.75;96859.25;5056615;28;20334;-28
2023/09/18 04:23:21;;;;;;;3.07;2.80;;;;;;;24.34;72.06;96845.56;5054674;28;20287;-27
2023/09/18 04:25:48;;;;;;;4.93;2.90;;;;;;;24.33;71.90;96854.97;5052420;28;20251;-29
2023/09/18 04:28:16;;;;;;;3.00;2.80;;;;;;;24.31;71.93;96855.81;5056783;28;20243;-27
2023/09/18 04:30:43;;;;;;;3.17;2.87;;;;;;;24.29;72.33;96844.66;5056598;28;20642;-27
2023/09/18 04:33:09;;;;;;;2.83;2.63;;;;;;;24.28;72.31;96846.38;5057009;28;20197;-27
2023/09/18 04:35:37;;;;;;;3.00;2.80;;;;;;;24.26;71.80;96853.22;5054874;28;20204;-29
2023/09/18 04:38:06;;;;;;;2.70;2.50;;;;;;;24.25;71.87;96855.78;5050610;28;20280;-32
2023/09/18 04:40:33;;;;;;;3.03;2.83;;;;;;;24.25;71.98;96850.63;5056030;28;20758;-28
2023/09/18 04:42:59;;;;;;;3.37;3.07;;;;;;;24.24;72.18;96854.03;5051886;28;20197;-29
2023/09/18 04:45:26;;;;;;;5.40;3.73;;;;;;;24.23;72.66;96849.75;5024439;28;20331;-27
2023/09/18 04:47:53;;;;;;;6.03;4.80;;;;;;;24.20;72.35;96860.88;5044997;28;20203;-29
2023/09/18 04:50:20;;;;;;;6.30;5.57;;;;;;;24.18;72.37;96852.28;5044473;28;20731;-27
2023/09/18 04:52:46;;;;;;;7.93;6.17;;;;;;;24.16;72.20;96848.84;5049977;28;20197;-27
2023/09/18 04:55:13;;;;;;;6.30;5.70;;;;;;;24.14;72.32;96841.97;5045620;28;20716;-30
2023/09/18 04:57:40;;;;;;;8.17;6.87;;;;;;;24.13;72.60;96838.53;5049558;28;20229;-28
2023/09/18 05:00:12;;;;;;;10.33;6.37;;;;;;;24.12;72.71;96838.53;5048383;28;20216;-32
2023/09/18 05:02:43;;;;;;;8.63;6.40;;;;;;;24.10;72.53;96853.09;5051170;28;20228;-28
2023/09/18 05:05:11;;;;;;;10.77;6.20;;;;;;;24.10;73.09;96860.78;5050819;28;20824;-27
2023/09/18 05:07:38;;;;;;;10.80;6.67;;;;;;;24.11;73.83;96865.06;5047266;28;20743;-32
2023/09/18 05:10:04;;;;;;;11.73;6.53;;;;;;;24.11;73.17;96865.06;5048617;28;20278;-27
2023/09/18 05:12:31;;;;;;;10.67;6.00;;;;;;;24.11;72.53;96867.63;5051451;28;20209;-29
2023/09/18 05:14:58;;;;;;;7.33;6.07;;;;;;;24.10;71.16;96863.34;5053142;28;20319;-28
2023/09/18 05:17:41;;;;;;;9.97;5.53;;;;;;;24.11;71.98;96867.63;5053432;28;20248;-27
2023/09/18 05:20:09;;;;;;;10.43;6.17;;;;;;;24.12;72.20;96864.19;5052218;28;20213;-27
2023/09/18 05:22:36;;;;;;;6.30;5.50;;;;;;;24.13;72.82;96863.38;5047011;28;20197;-29
2023/09/18 05:25:04;;;;;;;7.47;5.77;;;;;;;24.13;72.29;96858.25;5050782;28;20194;-31
2023/09/18 05:27:31;;;;;;;7.93;6.20;;;;;;;24.12;72.69;96862.50;5049430;28;20204;-27
2023/09/18 05:29:57;;;;;;;9.40;5.87;;;;;;;24.14;72.71;96863.38;5051087;28;20221;-27
2023/09/18 05:32:24;;;;;;;7.17;5.63;;;;;;;24.16;72.80;96866.81;5053249;28;20220;-27
2023/09/18 05:34:50;;;;;;;6.37;5.77;;;;;;;24.16;72.43;96874.50;5050124;28;20368;-27
2023/09/18 05:37:17;;;;;;;6.27;5.67;;;;;;;24.17;72.73;96881.38;5048291;28;20229;-30
2023/09/18 05:39:43;;;;;;;8.17;5.90;;;;;;;24.19;72.36;96900.22;5043687;28;20220;-27
2023/09/18 05:42:10;;;;;;;5.30;4.90;;;;;;;24.19;72.46;96905.34;5051691;28;20201;-27
2023/09/18 05:44:40;;;;;;;9.17;5.77;;;;;;;24.20;72.53;96911.34;5052669;28;20284;-27
2023/09/18 05:47:08;;;;;;;9.23;5.90;;;;;;;24.20;73.00;96904.53;5051987;28;20193;-29
2023/09/18 05:49:35;;;;;;;6.87;5.70;;;;;;;24.21;72.94;96892.53;5051478;28;20225;-28
2023/09/18 05:52:02;;;;;;;6.80;6.10;;;;;;;24.21;73.00;96897.66;5051483;28;20219;-29
2023/09/18 05:54:28;;;;;;;9.40;6.70;;;;;;;24.21;73.74;96892.53;5048391;28;20205;-29
2023/09/18 05:56:55;;;;;;;9.77;7.03;;;;;;;24.20;73.79;96876.28;5049992;28;20200;-27
2023/09/18 05:59:22;;;;;;;10.13;6.60;;;;;;;24.21;74.23;96877.13;5050944;28;20287;-32
2023/09/18 06:01:49;;;;;;;7.40;6.30;;;;;;;24.22;74.60;96881.44;5029573;28;20262;-29
2023/09/18 06:04:16;;;;;;;9.00;6.37;;;;;;;24.21;73.70;96883.13;5031145;28;20303;-30
2023/09/18 06:06:43;;;;;;;6.83;5.60;;;;;;;24.22;73.22;96882.25;5032720;28;20209;-29
2023/09/18 06:09:10;;;;;;;7.90;5.97;;;;;;;24.21;73.13;96878.00;4993081;28;20233;-32
2023/09/18 06:11:36;;;;;;;9.20;5.47;;;;;;;24.24;73.31;96884.84;5044339;28;20211;-30
2023/09/18 06:14:03;;;;;;;5.97;5.37;;;;;;;24.22;73.06;96882.25;5043196;28;20201;-31
2023/09/18 06:16:31;;;;;;;8.13;5.40;;;;;;;24.22;73.32;96884.00;5043111;28;20209;-30
2023/09/18 06:18:59;;;;;;;5.53;5.03;;;;;;;24.23;72.98;96896.84;5025864;28;20247;-27
2023/09/18 06:21:26;;;;;;;7.10;5.43;;;;;;;24.22;72.93;96904.53;5040323;28;20209;-27
2023/09/18 06:23:53;;;;;;;6.87;5.23;;;;;;;24.22;73.03;96925.91;5044667;28;20211;-34
2023/09/18 06:26:19;;;;;;;5.97;5.10;;;;;;;24.23;73.46;96940.50;5045178;28;20209;-38
2023/09/18 06:28:46;;;;;;;6.17;5.03;;;;;;;24.23;73.05;96934.50;5045614;28;20212;-27
2023/09/18 06:31:13;;;;;;;5.60;4.77;;;;;;;24.23;73.00;96937.06;5044037;28;20209;-27
2023/09/18 06:33:39;;;;;;;5.93;5.33;;;;;;;24.23;72.78;96937.06;5027616;28;20211;-30
2023/09/18 06:36:06;;;;;;;6.00;5.40;;;;;;;24.21;73.25;96924.22;5044483;28;20628;-27
2023/09/18 06:38:32;;;;;;;5.30;4.80;;;;;;;24.22;72.97;96915.66;5036914;28;20247;-31
2023/09/18 06:40:59;;;;;;;5.80;5.20;;;;;;;24.22;73.06;96928.50;5044878;28;20236;-31
2023/09/18 06:43:26;;;;;;;6.53;4.87;;;;;;;24.22;72.82;96930.22;5042869;28;20262;-29
2023/09/18 06:45:52;;;;;;;7.00;4.57;;;;;;;23.95;73.02;96874.31;5042467;28;20212;-27
2023/09/18 06:48:19;;;;;;;5.00;4.50;;;;;;;24.22;72.95;96920.78;5017142;28;20217;-32
2023/09/18 06:50:46;;;;;;;4.97;4.53;;;;;;;24.20;72.63;96908.78;5044200;28;20225;-35
2023/09/18 06:53:13;;;;;;;4.87;4.47;;;;;;;24.23;72.94;96908.81;5048021;28;20729;-28
2023/09/18 06:55:39;;;;;;;5.27;4.80;;;;;;;24.22;72.43;96920.78;5048366;28;20205;-27
2023/09/18 06:58:06;;;;;;;5.40;4.77;;;;;;;24.23;72.75;96929.34;5041665;28;20201;-35
2023/09/18 07:00:32;;;;;;;5.37;4.73;;;;;;;24.22;72.98;96917.38;5039816;28;20304;-29
2023/09/18 07:02:59;;;;;;;5.43;4.53;;;;;;;24.25;72.80;96917.41;5047822;28;20262;-28
2023/09/18 07:05:26;;;;;;;5.10;4.27;;;;;;;24.23;72.57;96932.78;5048829;28;20208;-28
2023/09/18 07:07:52;;;;;;;4.93;4.43;;;;;;;24.25;72.87;96936.22;5041834;28;20212;-34
2023/09/18 07:10:19;;;;;;;5.00;4.60;;;;;;;24.25;72.78;96941.34;5058252;22;20646;-24
2023/09/18 07:12:46;;;;;;;5.10;4.70;;;;;;;24.22;72.88;96936.19;5041628;28;20693;-23
2023/09/18 07:15:12;;;;;;;4.50;4.10;;;;;;;24.27;72.44;96934.53;5047826;28;20292;-24
2023/09/18 07:17:39;;;;;;;6.67;4.70;;;;;;;24.27;72.81;96934.53;5048734;28;20255;-25
2023/09/18 07:20:14;;;;;;;4.40;4.00;;;;;;;24.29;72.86;96937.13;5027498;28;20221;-24
2023/09/18 07:22:45;;;;;;;5.43;4.47;;;;;;;24.29;72.43;96940.56;5036441;28;20301;-24
2023/09/18 07:25:12;;;;;;;5.00;4.50;;;;;;;24.29;72.23;96938.00;5032934;28;20225;-24
2023/09/18 07:27:43;;;;;;;4.70;4.30;;;;;;;24.30;72.13;96947.41;5027263;28;20305;-25
2023/09/18 07:30:11;;;;;;;4.93;4.33;;;;;;;24.31;72.47;96946.53;5031289;28;20233;-25
2023/09/18 07:32:39;;;;;;;4.53;4.13;;;;;;;24.26;72.63;96942.22;5036038;28;20255;-24
2023/09/18 07:35:07;;;;;;;4.87;4.10;;;;;;;24.33;72.50;96961.97;5032081;28;20664;-24
2023/09/18 07:37:34;;;;;;;4.43;4.10;;;;;;;24.33;72.30;96949.13;5021888;28;20636;-24
2023/09/18 07:40:07;;;;;;;4.50;4.10;;;;;;;24.32;72.18;96938.03;5020533;28;20226;-24
2023/09/18 07:42:34;;;;;;;4.53;4.13;;;;;;;24.31;72.46;96941.41;5032004;28;20217;-25
2023/09/18 07:45:00;;;;;;;4.13;3.80;;;;;;;24.34;72.43;96946.56;5029971;28;20307;-24
2023/09/18 07:47:27;;;;;;;4.40;4.00;;;;;;;24.34;72.32;96945.72;5032766;28;20224;-25
2023/09/18 07:49:54;;;;;;;4.37;3.97;;;;;;;24.33;72.34;96932.03;5028236;28;20704;-25
2023/09/18 07:52:21;;;;;;;4.33;4.00;;;;;;;24.34;72.03;96931.16;5032003;28;20289;-24
2023/09/18 07:54:48;;;;;;;4.80;4.30;;;;;;;24.34;71.89;96914.91;5031291;28;20288;-23
2023/09/18 07:57:15;;;;;;;5.47;4.73;;;;;;;24.35;72.31;96916.63;5028959;28;20293;-25
2023/09/18 07:59:42;;;;;;;6.20;4.10;;;;;;;24.35;72.11;96916.63;5023456;28;20245;-26
2023/09/18 08:02:11;;;;;;;5.50;4.23;;;;;;;24.34;72.36;96913.19;5023878;28;20681;-24
2023/09/18 08:04:39;;;;;;;4.23;3.77;;;;;;;24.33;72.44;96905.47;5026192;28;20233;-23
2023/09/18 08:07:06;;;;;;;5.97;4.20;;;;;;;24.33;72.20;96911.47;5029863;28;20201;-24
2023/09/18 08:09:36;;;;;;;4.13;3.83;;;;;;;24.31;72.31;96920.88;5030109;28;20228;-25
2023/09/18 08:12:03;;;;;;;4.20;3.80;;;;;;;24.30;72.41;96931.13;5031870;28;20206;-25
2023/09/18 08:14:30;;;;;;;4.67;4.20;;;;;;;24.29;72.47;96945.69;5029099;28;20209;-24
2023/09/18 08:16:57;;;;;;;4.33;4.00;;;;;;;24.28;72.24;96946.50;5033548;28;20205;-23
2023/09/18 08:19:26;;;;;;;4.20;3.90;;;;;;;24.28;72.20;96943.09;5029741;28;20255;-24
2023/09/18 08:21:54;;;;;;;4.20;3.90;;;;;;;24.27;72.61;96939.66;5030063;28;20312;-24
2023/09/18 08:24:21;;;;;;;4.53;4.13;;;;;;;24.27;72.11;96938.81;5035336;28;20304;-24
2023/09/18 08:26:47;;;;;;;3.97;3.67;;;;;;;24.15;72.56;96916.44;5031840;28;20245;-24
2023/09/18 08:29:14;;;;;;;4.40;4.07;;;;;;;24.25;72.69;96927.69;5016669;28;20233;-24
2023/09/18 08:31:41;;;;;;;4.47;4.10;;;;;;;24.24;72.38;96942.22;5035016;28;20245;-24
2023/09/18 08:34:07;;;;;;;4.00;3.70;;;;;;;24.22;72.17;96940.47;5031005;28;20297;-24
2023/09/18 08:36:34;;;;;;;4.57;4.17;;;;;;;24.24;72.41;96949.91;5016435;28;20514;-24
2023/09/18 08:39:01;;;;;;;4.10;3.80;;;;;;;24.24;72.28;96954.19;5035813;28;20205;-24
2023/09/18 08:41:28;;;;;;;3.90;3.60;;;;;;;24.24;72.28;96952.47;5037563;28;20276;-24
2023/09/18 08:44:03;;;;;;;4.10;3.80;;;;;;;24.24;72.29;96961.88;5037874;28;20213;-24
2023/09/18 08:46:30;;;;;;;4.10;3.80;;;;;;;24.25;72.52;96967.03;5034982;28;20197;-25
2023/09/18 08:48:59;;;;;;;3.90;3.60;;;;;;;24.22;72.54;96968.72;5034070;28;20221;-25
2023/09/18 08:51:26;;;;;;;3.77;3.47;;;;;;;24.26;72.55;96971.34;4999299;28;20311;-23
2023/09/18 08:53:52;;;;;;;4.20;3.90;;;;;;;24.16;72.29;96948.97;5016217;28;20244;-24
2023/09/18 08:56:19;;;;;;;6.00;3.50;;;;;;;24.23;72.46;96963.59;5009371;28;20201;-25
2023/09/18 08:58:46;;;;;;;3.60;3.30;;;;;;;24.26;71.65;96966.22;5003215;28;20200;-24
2023/09/18 09:01:12;;;;;;;3.97;3.50;;;;;;;24.27;70.75;96961.91;5010185;28;20217;-24
2023/09/18 09:03:42;;;;;;;7.37;3.73;;;;;;;24.28;70.84;96963.66;5024220;28;20608;-25
2023/09/18 09:06:09;;;;;;;4.00;3.70;;;;;;;24.28;70.94;96955.94;5025934;28;20198;-25
2023/09/18 09:08:36;;;;;;;4.37;3.63;;;;;;;24.29;71.51;96953.41;5024401;28;20649;-24
2023/09/18 09:11:05;;;;;;;4.00;3.60;;;;;;;24.28;72.27;96949.09;5025274;28;20226;-25
2023/09/18 09:13:32;;;;;;;4.27;3.80;;;;;;;24.28;72.09;96954.22;5026065;28;20253;-24
2023/09/18 09:16:12;;;;;;;5.73;3.47;;;;;;;24.28;72.11;96953.38;5013888;28;20193;-24
2023/09/18 09:18:48;;;;;;;4.00;3.70;;;;;;;24.28;72.21;96948.25;5040559;28;20207;-25
2023/09/18 09:21:14;;;;;;;4.77;3.53;;;;;;;24.25;72.08;96941.34;5016021;28;20275;-24
2023/09/18 09:23:52;;;;;;;5.67;3.83;;;;;;;24.28;72.33;96954.22;4990974;28;20198;-24
2023/09/18 09:26:22;;;;;;;4.10;3.70;;;;;;;24.29;72.11;96957.66;5017648;28;20210;-24
2023/09/18 09:28:49;;;;;;;3.83;3.40;;;;;;;24.29;72.07;96947.38;5026000;28;20232;-24
2023/09/18 09:31:28;;;;;;;3.63;3.20;;;;;;;24.30;72.32;96956.81;5027887;28;20314;-25
2023/09/18 09:33:58;;;;;;;6.10;3.23;;;;;;;24.29;72.29;96953.41;5034392;28;20205;-24
2023/09/18 09:36:25;;;;;;;4.67;3.40;;;;;;;24.31;72.24;96953.41;5029506;28;20206;-24
2023/09/18 09:38:57;;;;;;;4.30;3.40;;;;;;;24.32;71.75;96957.69;5032177;28;20197;-25
2023/09/18 09:41:26;;;;;;;4.67;3.30;;;;;;;24.33;72.17;96955.13;5036270;28;20587;-25
2023/09/18 09:43:54;;;;;;;3.50;3.20;;;;;;;24.33;72.06;96957.69;5025387;28;20308;-25
2023/09/18 09:46:21;;;;;;;3.70;3.40;;;;;;;24.33;71.99;96961.97;5013476;28;20193;-24
2023/09/18 09:49:01;;;;;;;3.83;3.00;;;;;;;24.27;71.84;96949.94;5013587;28;20922;-25
2023/09/18 09:51:29;;;;;;;3.50;3.20;;;;;;;24.32;71.75;96953.44;5021924;28;20304;-25
2023/09/18 09:53:58;;;;;;;4.40;3.00;;;;;;;24.31;72.01;96956.81;5038056;28;20204;-24
2023/09/18 09:56:40;;;;;;;3.10;2.90;;;;;;;24.31;71.81;96956.81;5028297;28;20240;-24
2023/09/18 09:59:11;;;;;;;3.50;3.20;;;;;;;24.30;72.10;96962.81;5029853;28;20695;-24
2023/09/18 10:01:38;;;;;;;4.60;2.93;;;;;;;24.31;71.92;96964.53;5033989;28;20590;-25
2023/09/18 10:04:08;;;;;;;3.90;3.40;;;;;;;24.31;72.13;96966.25;5038935;28;20293;-24
2023/09/18 10:06:35;;;;;;;4.60;3.10;;;;;;;24.30;71.89;96964.50;5032092;28;20695;-25
2023/09/18 10:09:07;;;;;;;3.20;3.00;;;;;;;24.31;71.83;96967.09;5010895;28;20285;-24
2023/09/18 10:11:36;;;;;;;2.93;2.73;;;;;;;24.31;71.90;96958.53;5009496;28;20283;-24
2023/09/18 10:14:10;;;;;;;3.60;3.30;;;;;;;24.29;71.76;96966.25;5027292;28;20580;-25
2023/09/18 10:16:38;;;;;;;3.20;2.97;;;;;;;24.31;72.00;96961.13;4999243;28;20247;-23
2023/09/18 10:19:28;;;;;;;3.27;3.07;;;;;;;24.32;72.13;96967.97;5022888;28;20264;-25
2023/09/18 10:22:11;;;;;;;4.77;3.57;;;;;;;24.31;72.23;96955.97;5026871;28;20220;-25
2023/09/18 10:24:37;;;;;;;3.60;3.27;;;;;;;24.31;72.11;96961.94;5003877;28;20284;-25
2023/09/18 10:27:06;;;;;;;3.20;2.90;;;;;;;24.32;71.98;96960.25;5017576;28;20942;-24
2023/09/18 10:29:34;;;;;;;3.47;3.17;;;;;;;24.32;71.95;96973.97;5023102;28;20259;-24
2023/09/18 10:32:03;;;;;;;3.87;3.00;;;;;;;24.29;71.69;96973.94;5032151;28;20292;-24
2023/09/18 10:34:30;;;;;;;5.70;3.20;;;;;;;24.32;71.81;96979.09;5018840;28;20201;-25
2023/09/18 10:36:57;;;;;;;3.47;2.93;;;;;;;24.33;72.53;96977.38;5001201;28;20201;-24
2023/09/18 10:39:24;;;;;;;3.63;3.33;;;;;;;24.32;72.28;96981.69;5015115;28;20205;-24
2023/09/18 10:41:52;;;;;;;3.40;3.10;;;;;;;24.34;72.06;96989.41;5011085;28;20219;-25
2023/09/18 10:44:19;;;;;;;4.37;3.27;;;;;;;24.34;72.28;96994.53;5039317;28;20213;-24
2023/09/18 10:46:46;;;;;;;5.60;3.00;;;;;;;24.33;72.09;96987.66;5007441;28;20202;-25
2023/09/18 10:49:14;;;;;;;4.43;3.20;;;;;;;24.34;72.38;96995.38;5021428;28;20209;-24
2023/09/18 10:51:42;;;;;;;3.30;3.00;;;;;;;24.27;72.35;96983.31;5004530;28;20633;-25
2023/09/18 10:54:14;;;;;;;3.23;2.90;;;;;;;24.34;72.26;96991.97;5011808;28;20207;-25
2023/09/18 10:56:42;;;;;;;3.77;3.20;;;;;;;24.33;72.34;96996.22;5006085;28;20198;-25
2023/09/18 10:59:08;;;;;;;5.80;3.27;;;;;;;24.34;72.40;96994.53;5025856;28;20206;-24
2023/09/18 11:01:38;;;;;;;5.13;3.60;;;;;;;24.34;71.98;96992.81;4990119;28;20268;-23
2023/09/18 11:04:09;;;;;;;4.93;3.60;;;;;;;24.34;72.03;96991.97;5025022;28;20248;-25
2023/09/18 11:06:54;;;;;;;4.73;3.33;;;;;;;24.33;72.20;97001.38;5024105;28;20225;-25
2023/09/18 11:09:21;;;;;;;5.07;3.33;;;;;;;24.33;72.42;97005.63;5028287;28;20233;-24
2023/09/18 11:12:02;;;;;;;4.57;3.47;;;;;;;24.33;72.41;97008.19;5029935;28;20221;-25
2023/09/18 11:14:43;;;;;;;4.93;3.70;;;;;;;24.33;71.95;97014.22;5034067;28;20205;-24
2023/09/18 11:17:37;;;;;;;5.60;3.60;;;;;;;24.32;71.91;97009.94;5041271;28;20196;-25
2023/09/18 11:20:17;;;;;;;6.03;3.43;;;;;;;24.32;72.10;97011.63;5021742;28;20313;-25
2023/09/18 11:22:50;;;;;;;5.40;3.70;;;;;;;24.31;71.95;97021.03;5014849;28;20205;-25
2023/09/18 11:25:35;;;;;;;4.93;3.83;;;;;;;24.32;72.23;97027.03;5014144;28;20244;-24
2023/09/18 11:28:02;;;;;;;5.23;3.80;;;;;;;24.27;72.29;97019.28;5029365;28;20259;-25
2023/09/18 11:30:29;;;;;;;4.57;3.47;;;;;;;24.31;72.19;97033.03;5005831;28;20252;-24
2023/09/18 11:32:56;;;;;;;6.80;3.80;;;;;;;24.30;72.30;97036.41;5030615;28;20205;-24
2023/09/18 11:35:23;;;;;;;4.60;3.73;;;;;;;24.25;72.20;97036.38;5006605;28;20202;-24
2023/09/18 11:38:06;;;;;;;10.00;3.93;;;;;;;24.28;72.07;97044.09;4986868;28;20202;-25
2023/09/18 11:40:38;;;;;;;7.57;4.10;;;;;;;23.74;72.21;96957.91;5029194;28;20638;-25